createdAt,value
2022-12-01T00:01:22.968Z,26.48
2022-12-01T00:03:50.236Z,26.15
2022-12-01T00:06:20.182Z,25.67
2022-12-01T00:09:08.067Z,27.40
2022-12-01T00:11:36.674Z,26.90
2022-12-01T00:14:04.604Z,25.50
2022-12-01T00:16:31.794Z,27.05
2022-12-01T00:18:59.153Z,27.90
2022-12-01T00:21:29.470Z,27.88
2022-12-01T00:23:57.984Z,28.20
2022-12-01T00:26:26.334Z,27.23
2022-12-01T00:28:58.009Z,26.83
2022-12-01T00:31:25.893Z,26.55
2022-12-01T00:33:53.437Z,25.73
2022-12-01T00:36:21.364Z,25.20
2022-12-01T00:38:52.669Z,25.65
2022-12-01T00:41:20.960Z,25.80
2022-12-01T00:43:48.068Z,28.10
2022-12-01T00:46:15.261Z,24.95
2022-12-01T00:48:42.392Z,27.13
2022-12-01T00:51:09.663Z,26.02
2022-12-01T00:53:36.730Z,25.05
2022-12-01T00:56:03.894Z,26.08
2022-12-01T00:58:30.984Z,24.33
2022-12-01T01:01:00.829Z,25.38
2022-12-01T01:03:28.823Z,24.52
2022-12-01T01:05:55.891Z,24.63
2022-12-01T01:08:23.171Z,24.95
2022-12-01T01:10:50.545Z,26.70
2022-12-01T01:13:17.629Z,25.75
2022-12-01T01:15:45.016Z,26.42
2022-12-01T01:18:12.388Z,23.08
2022-12-01T01:20:39.868Z,24.85
2022-12-01T01:23:07.285Z,25.20
2022-12-01T01:25:34.543Z,24.75
2022-12-01T01:28:01.640Z,24.33
2022-12-01T01:30:28.705Z,25.63
2022-12-01T01:32:55.814Z,24.02
2022-12-01T01:35:22.864Z,23.77
2022-12-01T01:37:50.879Z,25.30
2022-12-01T01:40:18.625Z,25.35
2022-12-01T01:42:46.013Z,24.92
2022-12-01T01:45:21.426Z,25.83
2022-12-01T01:47:51.957Z,22.73
2022-12-01T01:50:26.433Z,26.02
2022-12-01T01:53:02.125Z,24.83
2022-12-01T01:55:32.047Z,25.35
2022-12-01T01:57:59.963Z,25.85
2022-12-01T02:00:27.453Z,25.55
2022-12-01T02:02:57.568Z,28.17
2022-12-01T02:05:28.162Z,26.30
2022-12-01T02:07:58.523Z,25.00
2022-12-01T02:11:08.577Z,26.45
2022-12-01T02:14:03.470Z,27.10
2022-12-01T02:16:33.258Z,26.33
2022-12-01T02:19:07.597Z,25.27
2022-12-01T02:22:02.640Z,26.33
2022-12-01T02:25:07.167Z,25.85
2022-12-01T02:28:00.333Z,27.48
2022-12-01T02:30:29.776Z,28.20
2022-12-01T02:33:04.132Z,26.80
2022-12-01T02:35:46.137Z,26.77
2022-12-01T02:38:28.559Z,28.95
2022-12-01T02:41:00.250Z,26.00
2022-12-01T02:43:51.706Z,27.52
2022-12-01T02:46:29.523Z,27.48
2022-12-01T02:49:01.891Z,27.20
2022-12-01T02:51:32.229Z,27.42
2022-12-01T02:54:01.945Z,27.65
2022-12-01T02:56:29.311Z,27.15
2022-12-01T02:58:56.412Z,26.50
2022-12-01T03:01:35.647Z,27.02
2022-12-01T03:04:10.918Z,30.25
2022-12-01T03:06:59.876Z,26.23
2022-12-01T03:09:35.721Z,27.08
2022-12-01T03:12:06.563Z,27.35
2022-12-01T03:14:41.805Z,28.05
2022-12-01T03:17:16.596Z,26.35
2022-12-01T03:19:50.214Z,26.83
2022-12-01T03:22:24.839Z,27.20
2022-12-01T03:24:54.530Z,29.02
2022-12-01T03:27:25.601Z,26.38
2022-12-01T03:29:56.356Z,26.60
2022-12-01T03:32:49.462Z,25.80
2022-12-01T03:35:24.397Z,27.42
2022-12-01T03:37:59.285Z,27.63
2022-12-01T03:40:30.791Z,27.88
2022-12-01T03:43:05.433Z,26.70
2022-12-01T03:46:07.878Z,26.98
2022-12-01T03:48:35.243Z,27.45
2022-12-01T03:51:25.252Z,25.35
2022-12-01T03:54:03.262Z,27.10
2022-12-01T03:56:37.747Z,25.58
2022-12-01T03:59:07.797Z,25.92
2022-12-01T04:01:34.947Z,25.80
2022-12-01T04:04:11.813Z,27.25
2022-12-01T04:06:42.247Z,25.70
2022-12-01T04:09:09.338Z,27.02
2022-12-01T04:11:54.747Z,26.08
2022-12-01T04:14:22.112Z,26.50
2022-12-01T04:16:49.457Z,26.67
2022-12-01T04:19:16.613Z,28.05
2022-12-01T04:21:43.687Z,27.13
2022-12-01T04:24:12.223Z,26.80
2022-12-01T04:26:39.415Z,26.95
2022-12-01T04:29:09.130Z,26.42
2022-12-01T04:31:36.507Z,26.70
2022-12-01T04:34:04.141Z,28.15
2022-12-01T04:36:33.003Z,27.75
2022-12-01T04:39:00.740Z,28.38
2022-12-01T04:41:28.270Z,27.65
2022-12-01T04:43:55.927Z,27.63
2022-12-01T04:46:24.223Z,28.80
2022-12-01T04:48:51.948Z,26.65
2022-12-01T04:51:19.147Z,28.45
2022-12-01T04:53:46.192Z,28.00
2022-12-01T04:56:13.316Z,28.05
2022-12-01T04:58:40.740Z,27.08
2022-12-01T05:01:11.295Z,28.50
2022-12-01T05:03:44.000Z,28.40
2022-12-01T05:06:13.728Z,27.48
2022-12-01T05:08:41.292Z,28.67
2022-12-01T05:11:09.088Z,27.70
2022-12-01T05:13:45.119Z,27.48
2022-12-01T05:16:17.935Z,28.00
2022-12-01T05:19:13.800Z,28.67
2022-12-01T05:21:41.762Z,26.05
2022-12-01T05:24:10.587Z,29.33
2022-12-01T05:26:37.792Z,27.83
2022-12-01T05:29:04.981Z,26.70
2022-12-01T05:31:32.473Z,28.83
2022-12-01T05:33:59.935Z,28.98
2022-12-01T05:36:27.174Z,28.33
2022-12-01T05:38:54.973Z,26.77
2022-12-01T05:41:22.049Z,28.95
2022-12-01T05:43:49.093Z,29.30
2022-12-01T05:46:16.312Z,29.65
2022-12-01T05:48:43.464Z,28.05
2022-12-01T05:51:12.391Z,31.10
2022-12-01T05:53:39.728Z,29.75
2022-12-01T05:56:08.263Z,29.05
2022-12-01T05:58:35.602Z,30.85
2022-12-01T06:01:03.548Z,29.30
2022-12-01T06:03:30.634Z,30.65
2022-12-01T06:05:57.955Z,31.23
2022-12-01T06:08:25.285Z,30.80
2022-12-01T06:10:52.401Z,28.88
2022-12-01T06:13:19.538Z,30.10
2022-12-01T06:15:55.350Z,28.38
2022-12-01T06:18:22.478Z,29.20
2022-12-01T06:20:49.572Z,28.77
2022-12-01T06:23:16.662Z,30.38
2022-12-01T06:25:43.713Z,30.38
2022-12-01T06:28:10.778Z,30.63
2022-12-01T06:30:37.816Z,31.60
2022-12-01T06:33:04.892Z,31.65
2022-12-01T06:35:31.950Z,29.42
2022-12-01T06:37:58.940Z,31.35
2022-12-01T06:40:26.077Z,29.20
2022-12-01T06:42:53.317Z,28.55
2022-12-01T06:45:20.465Z,31.95
2022-12-01T06:47:48.375Z,33.53
2022-12-01T06:50:15.410Z,33.15
2022-12-01T06:52:42.505Z,34.90
2022-12-01T06:55:09.728Z,31.63
2022-12-01T06:57:37.185Z,31.80
2022-12-01T07:00:05.034Z,32.25
2022-12-01T07:02:32.435Z,30.50
2022-12-01T07:04:59.613Z,30.63
2022-12-01T07:07:26.859Z,32.50
2022-12-01T07:09:53.961Z,29.75
2022-12-01T07:12:20.968Z,30.15
2022-12-01T07:14:48.094Z,32.80
2022-12-01T07:17:15.095Z,30.67
2022-12-01T07:19:42.086Z,31.33
2022-12-01T07:22:09.142Z,32.45
2022-12-01T07:24:36.302Z,32.35
2022-12-01T07:27:03.669Z,31.48
2022-12-01T07:29:30.697Z,30.38
2022-12-01T07:31:58.085Z,32.15
2022-12-01T07:34:25.165Z,32.08
2022-12-01T07:36:52.213Z,32.90
2022-12-01T07:39:19.286Z,33.78
2022-12-01T07:41:46.482Z,31.80
2022-12-01T07:44:13.633Z,33.17
2022-12-01T07:46:41.196Z,34.50
2022-12-01T07:49:15.999Z,31.70
2022-12-01T07:51:46.272Z,34.08
2022-12-01T07:54:17.577Z,33.95
2022-12-01T07:56:44.659Z,34.25
2022-12-01T07:59:12.204Z,35.03
2022-12-01T08:01:44.288Z,33.78
2022-12-01T08:04:11.982Z,35.97
2022-12-01T08:06:39.120Z,35.22
2022-12-01T08:09:06.311Z,34.45
2022-12-01T08:11:33.522Z,34.65
2022-12-01T08:14:00.580Z,36.30
2022-12-01T08:16:31.450Z,36.17
2022-12-01T08:18:59.219Z,35.15
2022-12-01T08:21:26.264Z,35.50
2022-12-01T08:23:56.064Z,36.15
2022-12-01T08:26:27.072Z,33.97
2022-12-01T08:28:54.624Z,35.72
2022-12-01T08:31:28.820Z,34.53
2022-12-01T08:33:56.903Z,36.03
2022-12-01T08:36:25.084Z,37.72
2022-12-01T08:38:55.272Z,36.40
2022-12-01T08:41:24.177Z,40.75
2022-12-01T08:44:00.123Z,38.15
2022-12-01T08:46:35.692Z,38.38
2022-12-01T08:49:04.680Z,37.22
2022-12-01T08:51:32.519Z,37.53
2022-12-01T08:54:01.155Z,36.70
2022-12-01T08:56:34.400Z,37.22
2022-12-01T08:59:02.596Z,35.28
2022-12-01T09:01:29.793Z,39.25
2022-12-01T09:04:11.021Z,36.20
2022-12-01T09:06:43.893Z,37.55
2022-12-01T09:09:14.760Z,37.20
2022-12-01T09:11:43.950Z,39.25
2022-12-01T09:14:12.385Z,38.50
2022-12-01T09:16:40.256Z,38.42
2022-12-01T09:19:07.342Z,38.33
2022-12-01T09:21:36.945Z,39.42
2022-12-01T09:24:05.819Z,38.85
2022-12-01T09:26:33.699Z,38.97
2022-12-01T09:29:06.661Z,39.15
2022-12-01T09:31:34.446Z,37.95
2022-12-01T09:34:04.442Z,38.15
2022-12-01T09:36:32.694Z,36.55
2022-12-01T09:39:00.000Z,38.13
2022-12-01T09:41:33.133Z,37.67
2022-12-01T09:44:05.949Z,39.78
2022-12-01T09:46:41.331Z,39.35
2022-12-01T09:49:17.497Z,38.00
2022-12-01T09:51:44.685Z,37.45
2022-12-01T09:54:14.427Z,38.45
2022-12-01T09:56:47.287Z,38.50
2022-12-01T09:59:35.577Z,38.43
2022-12-01T10:02:13.234Z,36.20
2022-12-01T10:04:46.158Z,39.25
2022-12-01T10:07:22.326Z,37.42
2022-12-01T10:10:01.098Z,36.97
2022-12-01T10:12:33.742Z,37.67
2022-12-01T10:15:15.354Z,36.33
2022-12-01T10:17:57.571Z,38.15
2022-12-01T10:20:44.892Z,38.78
2022-12-01T10:23:28.244Z,37.80
2022-12-01T10:26:43.106Z,40.38
2022-12-01T10:29:13.271Z,37.55
2022-12-01T10:31:49.325Z,38.55
2022-12-01T10:34:18.933Z,37.72
2022-12-01T10:36:46.970Z,36.65
2022-12-01T10:39:29.779Z,36.67
2022-12-01T10:42:19.745Z,35.28
2022-12-01T10:44:47.315Z,35.38
2022-12-01T10:47:23.607Z,35.08
2022-12-01T10:49:50.866Z,35.58
2022-12-01T10:52:38.660Z,37.65
2022-12-01T10:55:26.122Z,34.75
2022-12-01T10:57:56.967Z,34.42
2022-12-01T11:00:58.180Z,35.33
2022-12-01T11:03:29.127Z,34.70
2022-12-01T11:05:59.504Z,33.10
2022-12-01T11:08:44.050Z,32.75
2022-12-01T11:11:34.321Z,32.78
2022-12-01T11:14:31.860Z,33.53
2022-12-01T11:17:25.553Z,30.52
2022-12-01T11:19:53.044Z,32.70
2022-12-01T11:22:27.019Z,33.85
2022-12-01T11:27:23.371Z,30.67
2022-12-01T11:30:02.725Z,29.63
2022-12-01T11:32:32.448Z,32.63
2022-12-01T11:35:00.810Z,32.25
2022-12-01T11:37:33.226Z,29.33
2022-12-01T11:40:31.947Z,34.20
2022-12-01T11:43:05.896Z,30.30
2022-12-01T11:45:39.186Z,31.00
2022-12-01T11:48:20.655Z,31.27
2022-12-01T11:51:19.720Z,31.50
2022-12-01T11:53:47.073Z,30.38
2022-12-01T11:56:16.805Z,30.77
2022-12-01T11:58:45.716Z,31.90
2022-12-01T12:01:47.414Z,29.90
2022-12-01T12:04:45.094Z,29.80
2022-12-01T12:07:30.708Z,29.95
2022-12-01T12:10:35.276Z,30.13
2022-12-01T12:16:08.468Z,28.83
2022-12-01T12:18:59.513Z,27.52
2022-12-01T12:21:51.180Z,28.45
2022-12-01T12:24:26.057Z,29.00
2022-12-01T12:27:28.129Z,28.25
2022-12-01T12:30:00.851Z,27.15
2022-12-01T12:32:46.427Z,26.33
2022-12-01T12:35:34.966Z,26.05
2022-12-01T12:38:11.522Z,26.92
2022-12-01T12:40:46.887Z,27.20
2022-12-01T12:43:40.945Z,26.70
2022-12-01T12:46:12.412Z,26.60
2022-12-01T12:49:20.915Z,27.13
2022-12-01T12:51:48.094Z,27.30
2022-12-01T12:54:33.670Z,27.85
2022-12-01T12:57:06.109Z,27.67
2022-12-01T12:59:48.568Z,27.33
2022-12-01T13:02:34.320Z,27.42
2022-12-01T13:05:28.851Z,26.83
2022-12-01T13:08:11.256Z,27.08
2022-12-01T13:10:58.075Z,25.08
2022-12-01T13:13:37.504Z,27.70
2022-12-01T13:16:12.208Z,25.40
2022-12-01T13:18:50.520Z,26.23
2022-12-01T13:21:20.518Z,25.75
2022-12-01T13:23:50.066Z,26.45
2022-12-01T13:26:20.188Z,24.95
2022-12-01T13:28:51.697Z,25.40
2022-12-01T13:31:20.843Z,24.38
2022-12-01T13:34:03.605Z,23.70
2022-12-01T13:36:46.814Z,22.85
2022-12-01T13:39:29.515Z,23.40
2022-12-01T13:42:06.226Z,23.52
2022-12-01T13:44:45.874Z,24.95
2022-12-01T13:47:12.920Z,23.65
2022-12-01T13:49:44.427Z,24.00
2022-12-01T13:52:22.891Z,25.15
2022-12-01T13:55:10.740Z,24.17
2022-12-01T13:58:05.429Z,23.42
2022-12-01T14:00:34.702Z,24.33
2022-12-01T14:03:20.173Z,24.67
2022-12-01T14:05:53.332Z,23.92
2022-12-01T14:08:29.695Z,23.42
2022-12-01T14:11:19.180Z,22.88
2022-12-01T14:13:55.418Z,24.65
2022-12-01T14:16:23.481Z,25.65
2022-12-01T14:18:55.450Z,21.17
2022-12-01T14:21:47.200Z,23.98
2022-12-01T14:24:51.244Z,22.38
2022-12-01T14:27:36.868Z,24.58
2022-12-01T14:30:41.058Z,23.15
2022-12-01T14:33:42.034Z,22.40
2022-12-01T14:36:21.839Z,22.95
2022-12-01T14:38:52.904Z,21.35
2022-12-01T14:41:26.521Z,22.30
2022-12-01T14:44:03.614Z,22.48
2022-12-01T14:46:52.871Z,21.90
2022-12-01T14:49:25.534Z,22.52
2022-12-01T14:52:04.473Z,24.00
2022-12-01T14:54:39.117Z,23.10
2022-12-01T14:57:11.098Z,23.58
2022-12-01T14:59:40.855Z,23.20
2022-12-01T15:02:11.887Z,23.88
2022-12-01T15:05:12.644Z,22.98
2022-12-01T15:07:42.484Z,23.42
2022-12-01T15:10:16.868Z,22.63
2022-12-01T15:12:44.020Z,23.17
2022-12-01T15:15:24.343Z,22.00
2022-12-01T15:17:55.747Z,23.67
2022-12-01T15:20:35.384Z,24.90
2022-12-01T15:23:12.496Z,23.95
2022-12-01T15:25:43.450Z,23.83
2022-12-01T15:28:17.633Z,24.73
2022-12-01T15:30:51.723Z,24.02
2022-12-01T15:33:36.795Z,24.98
2022-12-01T15:36:07.275Z,24.77
2022-12-01T15:38:37.901Z,24.98
2022-12-01T15:41:28.691Z,23.35
2022-12-01T15:44:05.421Z,24.48
2022-12-01T15:46:36.946Z,23.30
2022-12-01T15:49:32.570Z,22.75
2022-12-01T15:52:12.244Z,22.88
2022-12-01T15:54:39.968Z,22.80
2022-12-01T15:57:07.366Z,23.17
2022-12-01T15:59:44.484Z,24.00
2022-12-01T16:02:20.396Z,23.75
2022-12-01T16:04:48.809Z,25.60
2022-12-01T16:07:16.279Z,24.20
2022-12-01T16:09:58.136Z,24.02
2022-12-01T16:12:36.948Z,22.88
2022-12-01T16:15:12.375Z,23.20
2022-12-01T16:17:43.877Z,24.42
2022-12-01T16:20:40.478Z,25.10
2022-12-01T16:23:15.407Z,23.02
2022-12-01T16:25:46.134Z,25.63
2022-12-01T16:28:37.246Z,26.65
2022-12-01T16:31:05.710Z,25.45
2022-12-01T16:33:38.127Z,25.40
2022-12-01T16:36:05.627Z,26.48
2022-12-01T16:38:32.661Z,30.38
2022-12-01T16:41:01.388Z,30.95
2022-12-01T16:43:29.316Z,31.00
2022-12-01T16:46:02.991Z,29.48
2022-12-01T16:51:02.529Z,29.10
2022-12-01T16:53:29.600Z,27.98
2022-12-01T16:56:01.735Z,28.95
2022-12-01T16:58:29.355Z,29.27
2022-12-01T17:00:57.001Z,29.35
2022-12-01T17:03:27.785Z,30.33
2022-12-01T17:05:55.968Z,30.42
2022-12-01T17:08:23.096Z,30.05
2022-12-01T17:10:51.675Z,29.20
2022-12-01T17:13:21.837Z,30.83
2022-12-01T17:15:51.396Z,31.52
2022-12-01T17:18:20.225Z,31.77
2022-12-01T17:20:58.675Z,32.10
2022-12-01T17:23:29.201Z,31.20
2022-12-01T17:25:56.281Z,32.75
2022-12-01T17:28:23.383Z,32.28
2022-12-01T17:30:50.509Z,32.95
2022-12-01T17:33:17.553Z,33.00
2022-12-01T17:35:44.564Z,38.15
2022-12-01T17:38:11.673Z,38.42
2022-12-01T17:40:38.824Z,34.28
2022-12-01T17:43:07.750Z,30.25
2022-12-01T17:45:34.859Z,30.67
2022-12-01T17:48:01.950Z,33.50
2022-12-01T17:50:31.966Z,32.05
2022-12-01T17:52:59.751Z,32.88
2022-12-01T17:55:27.054Z,32.70
2022-12-01T17:57:54.110Z,31.70
2022-12-01T18:00:21.700Z,33.17
2022-12-01T18:02:50.554Z,33.40
2022-12-01T18:05:17.778Z,34.22
2022-12-01T18:07:45.077Z,31.20
2022-12-01T18:10:12.311Z,32.80
2022-12-01T18:12:39.317Z,31.77
2022-12-01T18:15:07.053Z,30.00
2022-12-01T18:17:34.158Z,31.02
2022-12-01T18:20:01.293Z,31.15
2022-12-01T18:22:29.001Z,32.13
2022-12-01T18:24:56.507Z,32.40
2022-12-01T18:27:23.783Z,33.10
2022-12-01T18:29:50.767Z,32.17
2022-12-01T18:32:17.738Z,33.63
2022-12-01T18:34:44.958Z,32.05
2022-12-01T18:37:12.005Z,32.17
2022-12-01T18:39:39.060Z,32.20
2022-12-01T18:42:06.188Z,31.33
2022-12-01T18:44:33.300Z,33.35
2022-12-01T18:47:02.691Z,32.95
2022-12-01T18:49:29.785Z,34.17
2022-12-01T18:51:57.327Z,34.60
2022-12-01T18:54:24.376Z,33.65
2022-12-01T18:56:52.789Z,31.98
2022-12-01T18:59:19.918Z,33.03
2022-12-01T19:01:48.637Z,32.75
2022-12-01T19:04:16.648Z,33.72
2022-12-01T19:06:45.588Z,31.60
2022-12-01T19:09:14.321Z,31.50
2022-12-01T19:11:41.859Z,30.92
2022-12-01T19:14:17.747Z,32.67
2022-12-01T19:16:45.532Z,33.22
2022-12-01T19:19:12.686Z,33.67
2022-12-01T19:21:39.754Z,35.38
2022-12-01T19:24:06.999Z,33.65
2022-12-01T19:26:34.051Z,32.97
2022-12-01T19:29:01.144Z,33.13
2022-12-01T19:31:31.163Z,33.97
2022-12-01T19:33:58.934Z,34.58
2022-12-01T19:36:32.167Z,35.05
2022-12-01T19:39:00.493Z,32.72
2022-12-01T19:41:29.322Z,34.15
2022-12-01T19:43:58.122Z,33.20
2022-12-01T19:46:27.495Z,32.50
2022-12-01T19:48:58.087Z,32.75
2022-12-01T19:51:28.227Z,29.45
2022-12-01T19:53:55.339Z,30.90
2022-12-01T19:56:23.479Z,31.70
2022-12-01T19:58:50.772Z,31.52
2022-12-01T20:01:19.658Z,32.58
2022-12-01T20:03:49.169Z,32.30
2022-12-01T20:06:19.384Z,30.88
2022-12-01T20:08:46.522Z,31.13
2022-12-01T20:11:14.420Z,33.22
2022-12-01T20:13:43.237Z,34.30
2022-12-01T20:16:12.869Z,34.00
2022-12-01T20:18:40.781Z,33.10
2022-12-01T20:21:15.901Z,33.05
2022-12-01T20:23:48.576Z,30.77
2022-12-01T20:26:17.179Z,30.58
2022-12-01T20:28:46.542Z,30.65
2022-12-01T20:31:17.310Z,33.65
2022-12-01T20:33:44.407Z,33.35
2022-12-01T20:36:12.340Z,32.65
2022-12-01T20:38:39.388Z,34.42
2022-12-01T20:41:06.800Z,34.35
2022-12-01T20:43:34.573Z,33.53
2022-12-01T20:46:02.689Z,33.75
2022-12-01T20:48:30.201Z,31.00
2022-12-01T20:51:00.198Z,33.17
2022-12-01T20:53:27.199Z,33.17
2022-12-01T20:55:55.173Z,33.17
2022-12-01T20:58:22.356Z,32.22
2022-12-01T21:00:49.446Z,31.50
2022-12-01T21:03:16.588Z,31.92
2022-12-01T21:05:44.258Z,32.63
2022-12-01T21:08:13.315Z,32.58
2022-12-01T21:10:44.797Z,31.92
2022-12-01T21:13:39.386Z,31.90
2022-12-01T21:16:24.748Z,31.50
2022-12-01T21:18:53.240Z,31.77
2022-12-01T21:21:22.461Z,33.05
2022-12-01T21:24:03.605Z,33.08
2022-12-01T21:26:30.673Z,31.83
2022-12-01T21:28:59.866Z,33.50
2022-12-01T21:31:27.370Z,32.53
2022-12-01T21:33:56.344Z,32.25
2022-12-01T21:36:28.315Z,32.70
2022-12-01T21:39:05.369Z,31.67
2022-12-01T21:41:32.409Z,33.78
2022-12-01T21:44:12.234Z,33.35
2022-12-01T21:46:41.561Z,32.25
2022-12-01T21:49:35.276Z,32.65
2022-12-01T21:52:06.798Z,32.50
2022-12-01T21:54:34.857Z,31.35
2022-12-01T21:57:01.853Z,32.90
2022-12-01T21:59:29.847Z,31.77
2022-12-01T22:01:58.016Z,31.80
2022-12-01T22:04:29.993Z,30.02
2022-12-01T22:06:58.927Z,32.40
2022-12-01T22:09:34.949Z,32.17
2022-12-01T22:12:42.433Z,32.08
2022-12-01T22:15:36.360Z,31.70
2022-12-01T22:18:17.330Z,30.35
2022-12-01T22:20:44.536Z,32.05
2022-12-01T22:23:13.368Z,31.90
2022-12-01T22:25:41.844Z,30.58
2022-12-01T22:28:14.413Z,30.88
2022-12-01T22:30:41.604Z,32.40
2022-12-01T22:33:21.159Z,33.22
2022-12-01T22:35:50.311Z,33.10
2022-12-01T22:38:26.318Z,35.70
2022-12-01T22:41:00.790Z,32.10
2022-12-01T22:43:46.319Z,32.83
2022-12-01T22:46:21.460Z,33.42
2022-12-01T22:49:10.830Z,34.95
2022-12-01T22:51:40.800Z,33.78
2022-12-01T22:54:25.227Z,34.75
2022-12-01T22:57:28.305Z,34.22
2022-12-01T22:59:55.855Z,35.45
2022-12-01T23:02:27.285Z,36.20
2022-12-01T23:04:59.117Z,34.05
2022-12-01T23:07:34.474Z,35.70
2022-12-01T23:10:09.344Z,36.80
2022-12-01T23:12:37.304Z,37.38
2022-12-01T23:15:27.219Z,36.33
2022-12-01T23:17:55.077Z,36.25
2022-12-01T23:20:33.608Z,37.33
2022-12-01T23:23:04.010Z,35.72
2022-12-01T23:25:31.551Z,36.38
2022-12-01T23:28:03.561Z,38.20
2022-12-01T23:30:30.969Z,36.05
2022-12-01T23:33:24.091Z,39.08
2022-12-01T23:35:57.304Z,36.05
2022-12-01T23:38:34.811Z,35.92
2022-12-01T23:41:05.882Z,38.58
2022-12-01T23:43:40.064Z,37.40
2022-12-01T23:46:12.605Z,38.15
2022-12-01T23:48:53.333Z,38.53
2022-12-01T23:51:26.222Z,37.58
2022-12-01T23:53:55.093Z,39.03
2022-12-01T23:56:25.201Z,38.55
2022-12-01T23:58:54.333Z,39.60
